Portada
METAR-TAF:

METAR-TAF

Aeroports :

Whyalla, Austràlia

latitud: 33-03-32S, longitud: 137-30-52E, altitud: 12 m

Observació

L'informe es va fer fa 15 minuts, a les 19:00 UTC
Vent 14 kt del Nord
Temperatura 13°C
Humitat 47%
Pressió 1013 hPa
Visibilitat 10 km o més

METAR: YWHA 141900Z AUTO 35014KT 9999 // NCD 13/02 Q1013

Hora: 04:45 (19:15 UTC)


TAF: manca

Observacions i pronòstics meteorològics de més de 4000 aeroports (METAR i TAF).

Les estacions disponibles són els punts grocs i vermells al mapa.

Posi el ratolí al punt desitjat per veure el nom de l'estació.

Feu clic per veure les observacions i els pronòstics meteorològics.

Per canviar el mapa: feu clic els botons verds amb una creu de color negre per apropar; al botó verd amb un guió per allunyar la imatge; o en les fletxes verdes per a mapes adjacents.


METAR-TAF: